Time;durP1;ratioP1;P1;durP2;ratioP2;P2;SDS_P1;SDS_P2;PMS_P1;PMS_P2;Temp;Humidity;BMP_temperature;BMP_pressure;BME280_temperature;BME280_humidity;BME280_pressure;Samples;Min_cycle;Max_cycle;Signal;HPM_P1;HPM_P2
2022/09/20 00:00:44;;;;;;;5.57;1.70;;;;;;;;;;4969644;28;20086;-77
2022/09/20 00:03:11;;;;;;;8.27;1.67;;;;;;;;;;4972140;28;20023;-77
2022/09/20 00:05:39;;;;;;;4.50;1.58;;;;;;;;;;4972528;28;20503;-77
2022/09/20 00:08:06;;;;;;;4.32;1.52;;;;;;;;;;4973161;28;20050;-77
2022/09/20 00:10:36;;;;;;;6.10;1.60;;;;;;;;;;4972040;28;20035;-78
2022/09/20 00:13:03;;;;;;;8.60;1.60;;;;;;;;;;4971620;28;20484;-77
2022/09/20 00:15:29;;;;;;;4.80;1.63;;;;;;;;;;4971921;28;20046;-77
2022/09/20 00:17:54;;;;;;;4.32;1.50;;;;;;;;;;4972236;28;20588;-77
2022/09/20 00:20:19;;;;;;;8.00;1.90;;;;;;;;;;4971667;28;20035;-77
2022/09/20 00:22:48;;;;;;;6.13;1.50;;;;;;;;;;4971767;28;20057;-77
2022/09/20 00:25:14;;;;;;;4.68;1.50;;;;;;;;;;4971689;28;20027;-77
2022/09/20 00:27:40;;;;;;;8.27;1.77;;;;;;;;;;4971787;28;20387;-77
2022/09/20 00:30:06;;;;;;;7.75;1.67;;;;;;;;;;4971730;28;20106;-77
2022/09/20 00:32:31;;;;;;;6.45;1.75;;;;;;;;;;4971512;28;20151;-77
2022/09/20 00:35:12;;;;;;;6.88;1.92;;;;;;;;;;4971744;28;20121;-77
2022/09/20 00:37:39;;;;;;;11.80;1.60;;;;;;;;;;4971261;28;20023;-77
2022/09/20 00:40:08;;;;;;;9.23;1.88;;;;;;;;;;4969610;28;20045;-77
2022/09/20 00:42:34;;;;;;;7.18;1.90;;;;;;;;;;4972086;28;20411;-77
2022/09/20 00:45:02;;;;;;;3.95;1.65;;;;;;;;;;4971285;28;20027;-77
2022/09/20 00:47:37;;;;;;;5.88;1.70;;;;;;;;;;4971474;28;20105;-77
2022/09/20 00:50:06;;;;;;;5.05;1.67;;;;;;;;;;4973101;28;20029;-77
2022/09/20 00:52:32;;;;;;;5.85;1.55;;;;;;;;;;4970357;28;20022;-77
2022/09/20 00:54:59;;;;;;;7.72;1.88;;;;;;;;;;4970948;28;20023;-77
2022/09/20 00:57:24;;;;;;;3.90;1.60;;;;;;;;;;4959051;28;20029;-77
2022/09/20 00:59:51;;;;;;;5.97;1.60;;;;;;;;;;4964931;28;20106;-77
2022/09/20 01:02:26;;;;;;;6.57;1.60;;;;;;;;;;4967460;28;20475;-77
2022/09/20 01:04:52;;;;;;;3.50;1.50;;;;;;;;;;4971212;28;20034;-77
2022/09/20 01:07:21;;;;;;;8.13;2.00;;;;;;;;;;4971034;28;20046;-76
2022/09/20 01:09:47;;;;;;;6.30;1.75;;;;;;;;;;4971172;28;20045;-78
2022/09/20 01:12:18;;;;;;;3.22;1.58;;;;;;;;;;4971090;28;20129;-77
2022/09/20 01:14:45;;;;;;;5.70;1.77;;;;;;;;;;4970709;28;20027;-77
2022/09/20 01:17:12;;;;;;;3.58;1.42;;;;;;;;;;4972233;28;20057;-77
2022/09/20 01:19:50;;;;;;;4.45;1.52;;;;;;;;;;4968820;28;20031;-77
2022/09/20 01:22:57;;;;;;;6.18;1.90;;;;;;;;;;4969498;28;20400;-77
2022/09/20 01:25:59;;;;;;;4.15;1.70;;;;;;;;;;4928393;29;20536;-77
2022/09/20 01:28:27;;;;;;;5.28;1.50;;;;;;;;;;4965959;28;20476;-77
2022/09/20 01:31:05;;;;;;;4.60;1.40;;;;;;;;;;4970053;28;20035;-77
2022/09/20 01:33:51;;;;;;;6.30;1.70;;;;;;;;;;4969177;28;20031;-77
2022/09/20 01:36:23;;;;;;;6.20;1.50;;;;;;;;;;4968508;28;20031;-77
2022/09/20 01:39:07;;;;;;;5.00;1.50;;;;;;;;;;4970269;28;20023;-77
2022/09/20 01:41:39;;;;;;;7.15;1.70;;;;;;;;;;4970734;28;20019;-77
2022/09/20 01:44:16;;;;;;;4.07;1.60;;;;;;;;;;4970829;28;20027;-77
2022/09/20 01:46:43;;;;;;;5.10;1.45;;;;;;;;;;4964665;28;20041;-77
2022/09/20 01:49:39;;;;;;;5.50;1.77;;;;;;;;;;4971947;28;20029;-77
2022/09/20 01:52:40;;;;;;;5.93;1.63;;;;;;;;;;4962511;28;20031;-77
2022/09/20 01:55:23;;;;;;;7.03;1.80;;;;;;;;;;4970254;28;20130;-77
2022/09/20 01:58:25;;;;;;;6.60;1.58;;;;;;;;;;4971873;28;20035;-77
2022/09/20 02:01:03;;;;;;;6.20;1.60;;;;;;;;;;4969945;28;20023;-77
2022/09/20 02:04:10;;;;;;;5.13;1.45;;;;;;;;;;4969693;28;20049;-77
2022/09/20 02:06:50;;;;;;;4.75;1.70;;;;;;;;;;4936610;28;20137;-77
2022/09/20 02:09:51;;;;;;;6.75;1.60;;;;;;;;;;4965644;28;20093;-77
2022/09/20 02:12:34;;;;;;;5.65;1.60;;;;;;;;;;4970041;28;20043;-77
2022/09/20 02:15:15;;;;;;;5.97;1.60;;;;;;;;;;4969786;28;20121;-77
2022/09/20 02:17:55;;;;;;;5.30;1.98;;;;;;;;;;4969608;28;20034;-77
2022/09/20 02:20:32;;;;;;;4.57;1.65;;;;;;;;;;4969383;28;20023;-77
2022/09/20 02:23:16;;;;;;;6.10;1.80;;;;;;;;;;4969288;28;20026;-77
2022/09/20 02:26:09;;;;;;;4.90;1.60;;;;;;;;;;4969739;28;20037;-77
2022/09/20 02:28:48;;;;;;;4.55;1.63;;;;;;;;;;4968858;28;20022;-77
2022/09/20 02:31:25;;;;;;;4.93;2.38;;;;;;;;;;4965059;28;20030;-77
2022/09/20 02:34:12;;;;;;;7.50;2.03;;;;;;;;;;4970052;28;20391;-77
2022/09/20 02:36:55;;;;;;;4.82;1.90;;;;;;;;;;4969880;28;20041;-77
2022/09/20 02:40:05;;;;;;;7.15;1.98;;;;;;;;;;4968160;28;20529;-77
2022/09/20 02:42:38;;;;;;;9.88;1.80;;;;;;;;;;4935314;28;20038;-77
2022/09/20 02:45:40;;;;;;;7.10;2.00;;;;;;;;;;4964718;28;20056;-77
2022/09/20 02:48:06;;;;;;;6.18;1.77;;;;;;;;;;4939236;28;20118;-77
2022/09/20 02:50:43;;;;;;;8.50;1.63;;;;;;;;;;4968998;28;20034;-77
2022/09/20 02:53:39;;;;;;;6.75;1.70;;;;;;;;;;4969579;28;20123;-77
2022/09/20 02:56:13;;;;;;;;;;;;;;;;;;4969670;28;20419;-77
2022/09/20 02:58:46;;;;;;;4.15;1.52;;;;;;;;;;4969817;28;20200;-77
2022/09/20 03:01:17;;;;;;;4.22;1.60;;;;;;;;;;4969742;28;20050;-77
2022/09/20 03:03:54;;;;;;;11.57;2.00;;;;;;;;;;4970044;28;20029;-77
2022/09/20 03:06:56;;;;;;;7.78;2.10;;;;;;;;;;4970257;28;20058;-77
2022/09/20 03:09:43;;;;;;;5.47;1.80;;;;;;;;;;4969787;28;20046;-77
2022/09/20 03:12:24;;;;;;;8.98;2.00;;;;;;;;;;4965069;28;20035;-77
2022/09/20 03:15:15;;;;;;;7.95;1.60;;;;;;;;;;4969112;28;20113;-77
2022/09/20 03:17:47;;;;;;;6.28;1.80;;;;;;;;;;4966630;28;20464;-77
2022/09/20 03:20:18;;;;;;;9.00;2.20;;;;;;;;;;4970195;28;20023;-76
2022/09/20 03:23:11;;;;;;;8.82;1.92;;;;;;;;;;4968797;28;20023;-76
2022/09/20 03:25:55;;;;;;;6.03;1.90;;;;;;;;;;4968372;28;20026;-77
2022/09/20 03:28:39;;;;;;;7.43;1.88;;;;;;;;;;4971574;28;20391;-77
2022/09/20 03:31:32;;;;;;;7.80;1.88;;;;;;;;;;4973789;28;20030;-77
2022/09/20 03:34:15;;;;;;;6.68;1.90;;;;;;;;;;4976683;28;20026;-77
2022/09/20 03:36:41;;;;;;;5.20;1.85;;;;;;;;;;4983253;28;20058;-78
2022/09/20 03:39:31;;;;;;;5.35;1.85;;;;;;;;;;4976657;28;20030;-78
2022/09/20 03:42:23;;;;;;;7.95;2.00;;;;;;;;;;4974012;28;20045;-77
2022/09/20 03:45:07;;;;;;;6.32;2.00;;;;;;;;;;4974072;28;20566;-77
2022/09/20 03:47:55;;;;;;;7.97;2.10;;;;;;;;;;4971011;28;20085;-78
2022/09/20 03:50:33;;;;;;;9.70;2.08;;;;;;;;;;4966901;28;20050;-77
2022/09/20 03:53:17;;;;;;;8.95;1.98;;;;;;;;;;4975427;28;20023;-78
2022/09/20 03:55:57;;;;;;;7.20;1.90;;;;;;;;;;4969352;28;20039;-78
2022/09/20 03:58:50;;;;;;;5.38;1.90;;;;;;;;;;4965664;28;20093;-79
2022/09/20 04:01:31;;;;;;;7.25;2.13;;;;;;;;;;4980307;28;20038;-79
2022/09/20 04:04:10;;;;;;;9.10;2.05;;;;;;;;;;4983334;28;20034;-78
2022/09/20 04:06:49;;;;;;;7.82;1.90;;;;;;;;;;4983040;28;20035;-77
2022/09/20 04:09:54;;;;;;;11.48;2.45;;;;;;;;;;4979421;28;20169;-79
2022/09/20 04:12:46;;;;;;;6.55;1.88;;;;;;;;;;4981461;28;20322;-77
2022/09/20 04:15:12;;;;;;;6.32;1.98;;;;;;;;;;4996711;28;20031;-77
2022/09/20 04:18:09;;;;;;;7.25;1.80;;;;;;;;;;4983325;28;20042;-77
2022/09/20 04:20:54;;;;;;;8.48;2.00;;;;;;;;;;4982881;28;20083;-77
2022/09/20 04:23:41;;;;;;;7.57;1.90;;;;;;;;;;4982033;28;20031;-77
2022/09/20 04:26:07;;;;;;;6.18;1.70;;;;;;;;;;4982759;28;20050;-77
2022/09/20 04:28:47;;;;;;;6.15;1.90;;;;;;;;;;4977762;28;20027;-76
2022/09/20 04:31:31;;;;;;;6.13;2.20;;;;;;;;;;4982326;28;20091;-78
2022/09/20 04:33:59;;;;;;;8.00;2.10;;;;;;;;;;4979827;28;20035;-77
2022/09/20 04:36:56;;;;;;;6.72;2.00;;;;;;;;;;4981019;28;20049;-77
2022/09/20 04:39:37;;;;;;;5.63;1.77;;;;;;;;;;4981923;28;20350;-77
2022/09/20 04:42:27;;;;;;;9.20;1.90;;;;;;;;;;4980002;28;20027;-79
2022/09/20 04:45:15;;;;;;;4.40;2.05;;;;;;;;;;4981777;28;20026;-76
2022/09/20 04:48:01;;;;;;;5.07;1.90;;;;;;;;;;4978310;28;20073;-77
2022/09/20 04:50:47;;;;;;;6.47;2.13;;;;;;;;;;4981942;28;20085;-77
2022/09/20 04:53:42;;;;;;;6.00;1.90;;;;;;;;;;4977216;28;20029;-77
2022/09/20 04:56:13;;;;;;;7.55;2.20;;;;;;;;;;4977283;28;20089;-77
2022/09/20 04:58:40;;;;;;;5.75;2.00;;;;;;;;;;4971717;28;20502;-77
2022/09/20 05:01:18;;;;;;;6.55;2.05;;;;;;;;;;4969769;28;20050;-76
2022/09/20 05:04:02;;;;;;;5.32;1.70;;;;;;;;;;4980867;28;20093;-77
2022/09/20 05:06:42;;;;;;;6.80;1.90;;;;;;;;;;4981428;28;20031;-77
2022/09/20 05:09:13;;;;;;;6.20;1.90;;;;;;;;;;4978287;28;20027;-78
2022/09/20 05:12:01;;;;;;;10.75;2.10;;;;;;;;;;4974239;28;20038;-77
2022/09/20 05:14:45;;;;;;;6.45;1.90;;;;;;;;;;4979568;28;20138;-76
2022/09/20 05:17:13;;;;;;;6.10;2.03;;;;;;;;;;4971901;28;20022;-77
2022/09/20 05:20:14;;;;;;;9.30;1.92;;;;;;;;;;4978055;28;20023;-78
2022/09/20 05:23:06;;;;;;;11.20;1.90;;;;;;;;;;4980251;28;20093;-77
2022/09/20 05:25:50;;;;;;;9.05;2.10;;;;;;;;;;4980532;28;20030;-77
2022/09/20 05:28:40;;;;;;;14.77;2.65;;;;;;;;;;4977996;28;20050;-77
2022/09/20 05:31:18;;;;;;;12.18;3.33;;;;;;;;;;4981119;28;20034;-77
2022/09/20 05:34:06;;;;;;;28.50;2.90;;;;;;;;;;4971985;28;20338;-78
2022/09/20 05:37:05;;;;;;;13.20;2.50;;;;;;;;;;4970365;28;20039;-78
2022/09/20 05:39:43;;;;;;;10.07;2.70;;;;;;;;;;4967183;28;20031;-76
2022/09/20 05:42:28;;;;;;;6.30;2.28;;;;;;;;;;4970490;28;20070;-78
2022/09/20 05:45:20;;;;;;;8.75;2.67;;;;;;;;;;4971640;28;20026;-76
2022/09/20 05:48:13;;;;;;;7.43;2.63;;;;;;;;;;4970062;28;20188;-76
2022/09/20 05:50:51;;;;;;;11.82;2.95;;;;;;;;;;4971945;28;20373;-76
2022/09/20 05:53:35;;;;;;;8.50;3.00;;;;;;;;;;4973307;28;20034;-76
2022/09/20 05:56:19;;;;;;;11.15;2.92;;;;;;;;;;4974591;28;20034;-76
2022/09/20 05:59:10;;;;;;;11.90;2.90;;;;;;;;;;4980925;28;20023;-76
2022/09/20 06:02:00;;;;;;;14.20;2.60;;;;;;;;;;4980217;28;20034;-76
2022/09/20 06:04:59;;;;;;;5.75;2.40;;;;;;;;;;4977918;28;20011;-77
2022/09/20 06:07:44;;;;;;;9.48;2.50;;;;;;;;;;4981008;28;20035;-78
2022/09/20 06:10:25;;;;;;;15.10;2.47;;;;;;;;;;4978195;28;20034;-76
2022/09/20 06:12:53;;;;;;;10.13;2.20;;;;;;;;;;4977465;28;20033;-76
2022/09/20 06:15:24;;;;;;;15.52;2.65;;;;;;;;;;4979919;28;20045;-76
2022/09/20 06:18:01;;;;;;;10.45;2.65;;;;;;;;;;4980623;28;20042;-76
2022/09/20 06:20:30;;;;;;;10.38;2.42;;;;;;;;;;4967220;28;20019;-77
2022/09/20 06:22:59;;;;;;;10.55;2.60;;;;;;;;;;4962795;28;20086;-76
2022/09/20 06:25:41;;;;;;;8.93;2.50;;;;;;;;;;4965120;28;20027;-76
2022/09/20 06:28:10;;;;;;;8.18;2.53;;;;;;;;;;4978851;28;20057;-75
2022/09/20 06:30:40;;;;;;;6.78;2.58;;;;;;;;;;4974477;28;20020;-77
2022/09/20 06:33:05;;;;;;;6.53;2.53;;;;;;;;;;4965998;28;20043;-75
2022/09/20 06:35:55;;;;;;;8.13;3.20;;;;;;;;;;4963909;28;20103;-77
2022/09/20 06:41:27;;;;;;;9.35;3.50;;;;;;;;;;4965464;28;20106;-77
2022/09/20 06:43:57;;;;;;;10.52;3.35;;;;;;;;;;4964032;28;20310;-76
2022/09/20 06:46:23;;;;;;;16.15;3.33;;;;;;;;;;4963786;28;20153;-76
2022/09/20 06:48:49;;;;;;;8.50;3.30;;;;;;;;;;4963659;28;20027;-78
2022/09/20 06:51:14;;;;;;;7.28;2.70;;;;;;;;;;4965029;28;20027;-77
2022/09/20 06:53:40;;;;;;;12.15;3.50;;;;;;;;;;4966421;28;20046;-77
2022/09/20 06:56:15;;;;;;;10.00;3.38;;;;;;;;;;4965479;28;20210;-76
2022/09/20 06:58:40;;;;;;;16.30;3.55;;;;;;;;;;4967561;28;20023;-76
2022/09/20 07:01:06;;;;;;;13.15;3.22;;;;;;;;;;4968213;28;20026;-77
2022/09/20 07:03:31;;;;;;;11.60;3.70;;;;;;;;;;4971640;28;20066;-77
2022/09/20 07:05:59;;;;;;;12.52;3.63;;;;;;;;;;4970689;28;20023;-77
2022/09/20 07:08:25;;;;;;;7.15;3.00;;;;;;;;;;4969340;28;20043;-78
2022/09/20 07:10:51;;;;;;;10.20;3.67;;;;;;;;;;4966989;28;20022;-78
2022/09/20 07:13:18;;;;;;;9.38;3.10;;;;;;;;;;4963955;28;20482;-77
2022/09/20 07:15:43;;;;;;;12.10;3.20;;;;;;;;;;4957475;28;20023;-78
2022/09/20 07:18:08;;;;;;;11.50;3.10;;;;;;;;;;4959493;28;20031;-77
2022/09/20 07:20:34;;;;;;;11.45;3.05;;;;;;;;;;4958671;28;20074;-77
2022/09/20 07:22:59;;;;;;;9.80;3.10;;;;;;;;;;4963624;28;20031;-77
2022/09/20 07:25:25;;;;;;;9.48;2.80;;;;;;;;;;4971518;28;20431;-78
2022/09/20 07:27:50;;;;;;;8.32;2.85;;;;;;;;;;4970644;28;20380;-78
2022/09/20 07:30:18;;;;;;;10.50;2.97;;;;;;;;;;4972248;28;20070;-77
2022/09/20 07:32:43;;;;;;;8.90;2.80;;;;;;;;;;4973934;28;20027;-77
2022/09/20 07:35:10;;;;;;;13.52;4.10;;;;;;;;;;4971187;28;20019;-77
2022/09/20 07:37:36;;;;;;;11.00;2.72;;;;;;;;;;4971523;28;20023;-78
2022/09/20 07:40:04;;;;;;;10.20;3.00;;;;;;;;;;4972581;28;20432;-77
2022/09/20 07:42:30;;;;;;;9.00;3.00;;;;;;;;;;4972938;28;20490;-77
2022/09/20 07:44:55;;;;;;;12.68;2.83;;;;;;;;;;4972655;28;20023;-77
2022/09/20 07:47:24;;;;;;;9.32;3.20;;;;;;;;;;4973890;28;20026;-77
2022/09/20 07:49:50;;;;;;;9.57;2.80;;;;;;;;;;4971250;28;20067;-77
2022/09/20 07:52:16;;;;;;;14.90;3.20;;;;;;;;;;4974000;28;20034;-79
2022/09/20 07:54:41;;;;;;;9.45;2.92;;;;;;;;;;4972460;28;20034;-78
2022/09/20 07:57:06;;;;;;;20.20;3.00;;;;;;;;;;4971131;28;20015;-78
2022/09/20 07:59:32;;;;;;;6.75;3.00;;;;;;;;;;4972455;28;20106;-79
2022/09/20 08:01:59;;;;;;;10.07;3.45;;;;;;;;;;4972949;28;20034;-79
2022/09/20 08:04:25;;;;;;;11.18;3.35;;;;;;;;;;4974349;28;20019;-79
2022/09/20 08:06:51;;;;;;;14.35;3.70;;;;;;;;;;4976444;28;20027;-78
2022/09/20 08:09:18;;;;;;;14.35;3.60;;;;;;;;;;4975255;28;20030;-78
2022/09/20 08:11:45;;;;;;;16.55;4.03;;;;;;;;;;4972180;28;20173;-78
2022/09/20 08:14:15;;;;;;;12.95;3.80;;;;;;;;;;4972131;28;20033;-78
2022/09/20 08:16:46;;;;;;;15.98;3.95;;;;;;;;;;4971843;28;20089;-79
2022/09/20 08:19:19;;;;;;;13.45;3.45;;;;;;;;;;4970448;28;20030;-79
2022/09/20 08:21:45;;;;;;;11.18;3.38;;;;;;;;;;4972168;28;20359;-79
2022/09/20 08:24:11;;;;;;;10.13;3.10;;;;;;;;;;4973698;28;20259;-79
2022/09/20 08:26:37;;;;;;;12.88;3.55;;;;;;;;;;4973677;28;20034;-78
2022/09/20 08:29:06;;;;;;;15.00;3.63;;;;;;;;;;4972976;28;20027;-79
2022/09/20 08:31:35;;;;;;;10.82;3.42;;;;;;;;;;4971992;28;20031;-79
2022/09/20 08:34:03;;;;;;;11.88;4.28;;;;;;;;;;4971390;28;20082;-79
2022/09/20 08:36:30;;;;;;;11.73;3.55;;;;;;;;;;4971640;28;20019;-78
2022/09/20 08:38:56;;;;;;;12.57;3.22;;;;;;;;;;4968223;28;20023;-79
2022/09/20 08:41:45;;;;;;;14.32;3.30;;;;;;;;;;4970364;28;20030;-79
2022/09/20 08:44:25;;;;;;;13.63;3.15;;;;;;;;;;4972755;28;20455;-78
2022/09/20 08:47:14;;;;;;;10.55;3.28;;;;;;;;;;4972998;28;20058;-79
2022/09/20 08:49:42;;;;;;;9.85;3.33;;;;;;;;;;4966979;28;20057;-78
2022/09/20 08:52:14;;;;;;;12.00;3.42;;;;;;;;;;4971821;28;20423;-79
2022/09/20 08:54:42;;;;;;;19.58;3.83;;;;;;;;;;4971319;28;20106;-78
2022/09/20 08:57:15;;;;;;;9.57;3.40;;;;;;;;;;4971518;28;20086;-79
2022/09/20 08:59:41;;;;;;;11.07;3.30;;;;;;;;;;4968214;28;20084;-79
2022/09/20 09:02:20;;;;;;;12.95;3.25;;;;;;;;;;4973063;28;20023;-79
2022/09/20 09:04:48;;;;;;;14.93;4.40;;;;;;;;;;4972030;28;20033;-79
2022/09/20 09:07:17;;;;;;;13.02;3.60;;;;;;;;;;4973843;28;20047;-79
2022/09/20 09:09:45;;;;;;;11.32;3.47;;;;;;;;;;4971947;28;20023;-79
2022/09/20 09:12:24;;;;;;;11.55;3.60;;;;;;;;;;4972099;28;20480;-79
2022/09/20 09:14:56;;;;;;;8.35;3.42;;;;;;;;;;4972130;28;20034;-79
2022/09/20 09:17:24;;;;;;;10.80;3.85;;;;;;;;;;4973653;28;20519;-78
2022/09/20 09:19:55;;;;;;;10.73;4.18;;;;;;;;;;4976625;28;20104;-79
2022/09/20 09:22:40;;;;;;;12.90;3.90;;;;;;;;;;4967688;28;20279;-77
2022/09/20 09:25:17;;;;;;;9.25;3.50;;;;;;;;;;4978041;28;20047;-78
2022/09/20 09:28:15;;;;;;;23.70;4.85;;;;;;;;;;4967118;28;20069;-78
2022/09/20 09:30:49;;;;;;;15.43;3.92;;;;;;;;;;4948033;28;20050;-77
2022/09/20 09:33:27;;;;;;;11.95;3.97;;;;;;;;;;4970619;28;20033;-78
2022/09/20 09:36:06;;;;;;;16.95;3.80;;;;;;;;;;4974237;28;20042;-78
2022/09/20 09:38:37;;;;;;;8.85;3.67;;;;;;;;;;4970414;28;20379;-78
2022/09/20 09:41:07;;;;;;;16.70;4.30;;;;;;;;;;4971925;28;20117;-77
2022/09/20 09:43:39;;;;;;;12.88;4.00;;;;;;;;;;4973013;28;20030;-78
2022/09/20 09:46:22;;;;;;;15.13;4.65;;;;;;;;;;4970571;28;20066;-78
2022/09/20 09:49:03;;;;;;;13.73;3.83;;;;;;;;;;4969205;28;20081;-78
2022/09/20 09:51:31;;;;;;;12.00;3.97;;;;;;;;;;4974562;28;20058;-77
2022/09/20 09:53:56;;;;;;;11.32;4.03;;;;;;;;;;4971926;28;20109;-79
2022/09/20 09:56:34;;;;;;;17.02;4.28;;;;;;;;;;4972889;28;20065;-78
2022/09/20 09:59:27;;;;;;;16.80;3.97;;;;;;;;;;4977270;28;20030;-78
2022/09/20 10:02:30;;;;;;;17.38;4.70;;;;;;;;;;4975609;28;20102;-78
2022/09/20 10:05:16;;;;;;;15.60;4.78;;;;;;;;;;4981305;28;20023;-79
2022/09/20 10:08:06;;;;;;;15.75;4.22;;;;;;;;;;4976220;28;20054;-78
2022/09/20 10:10:59;;;;;;;10.52;4.15;;;;;;;;;;4981251;28;20045;-78
2022/09/20 10:13:55;;;;;;;12.85;4.28;;;;;;;;;;4978718;28;20026;-77
2022/09/20 10:17:07;;;;;;;20.80;4.20;;;;;;;;;;4978568;28;20022;-77
2022/09/20 10:20:06;;;;;;;11.73;3.53;;;;;;;;;;4958303;28;20042;-78
2022/09/20 10:22:45;;;;;;;12.77;3.50;;;;;;;;;;4970054;28;20050;-79
2022/09/20 10:25:19;;;;;;;17.33;3.70;;;;;;;;;;4977202;28;20034;-78
2022/09/20 10:28:02;;;;;;;13.50;3.42;;;;;;;;;;4974210;28;20078;-78
2022/09/20 10:30:46;;;;;;;10.85;2.90;;;;;;;;;;4978111;28;20025;-78
2022/09/20 10:33:42;;;;;;;11.63;3.20;;;;;;;;;;4978979;28;20082;-78
2022/09/20 10:36:28;;;;;;;10.13;2.50;;;;;;;;;;4975116;28;20038;-77
2022/09/20 10:38:57;;;;;;;27.05;3.17;;;;;;;;;;4975146;28;20031;-77
2022/09/20 10:44:25;;;;;;;8.48;2.60;;;;;;;;;;4973254;28;20045;-79
2022/09/20 10:47:05;;;;;;;12.68;2.90;;;;;;;;;;4981501;28;20031;-78
2022/09/20 10:49:44;;;;;;;13.70;2.67;;;;;;;;;;4973914;28;20027;-78
2022/09/20 10:52:13;;;;;;;8.50;2.28;;;;;;;;;;4976857;28;20033;-78
2022/09/20 10:54:56;;;;;;;6.50;2.47;;;;;;;;;;4973512;28;20015;-77
2022/09/20 10:57:46;;;;;;;6.72;2.00;;;;;;;;;;4973864;28;20547;-78
2022/09/20 11:00:35;;;;;;;9.18;2.58;;;;;;;;;;4974817;28;20482;-78
2022/09/20 11:03:28;;;;;;;9.52;2.35;;;;;;;;;;4972584;28;20062;-78
2022/09/20 11:06:18;;;;;;;9.25;2.72;;;;;;;;;;4977698;28;20078;-78
2022/09/20 11:08:49;;;;;;;7.80;2.08;;;;;;;;;;4972431;28;20047;-78
2022/09/20 11:11:20;;;;;;;7.50;1.98;;;;;;;;;;4970185;28;20022;-78
2022/09/20 11:14:04;;;;;;;8.07;1.92;;;;;;;;;;4973678;28;20118;-78
2022/09/20 11:16:38;;;;;;;10.05;2.08;;;;;;;;;;4974651;28;20055;-78
2022/09/20 11:19:32;;;;;;;7.72;2.10;;;;;;;;;;4973446;28;20049;-78
2022/09/20 11:22:12;;;;;;;8.85;2.10;;;;;;;;;;4955037;28;20618;-78
2022/09/20 11:24:49;;;;;;;6.38;2.10;;;;;;;;;;4972825;28;20041;-79
2022/09/20 11:27:31;;;;;;;8.88;2.15;;;;;;;;;;4972001;28;20030;-78
2022/09/20 11:30:08;;;;;;;8.63;2.30;;;;;;;;;;4965999;28;20022;-78
2022/09/20 11:32:42;;;;;;;11.85;2.72;;;;;;;;;;4972497;28;20035;-78
2022/09/20 11:35:10;;;;;;;8.70;2.30;;;;;;;;;;4972817;28;20050;-78
2022/09/20 11:37:46;;;;;;;11.07;2.20;;;;;;;;;;4972896;28;20022;-79
2022/09/20 11:40:17;;;;;;;9.23;2.35;;;;;;;;;;4972686;28;20061;-79
2022/09/20 11:42:42;;;;;;;7.75;2.03;;;;;;;;;;4972852;28;20073;-78
2022/09/20 11:45:11;;;;;;;8.20;1.92;;;;;;;;;;4973622;28;20035;-78
2022/09/20 11:47:51;;;;;;;7.55;2.10;;;;;;;;;;4972798;28;20019;-78
2022/09/20 11:50:33;;;;;;;9.18;2.20;;;;;;;;;;4973855;28;20337;-79
2022/09/20 11:53:26;;;;;;;11.57;2.08;;;;;;;;;;4961280;28;20031;-78
2022/09/20 11:56:05;;;;;;;5.55;2.00;;;;;;;;;;4967970;28;20114;-78
2022/09/20 11:58:30;;;;;;;8.00;1.90;;;;;;;;;;4971939;28;20041;-79
2022/09/20 12:00:58;;;;;;;8.75;2.42;;;;;;;;;;4972549;28;20403;-78
2022/09/20 12:03:37;;;;;;;13.23;2.00;;;;;;;;;;4973928;28;20049;-79
2022/09/20 12:06:32;;;;;;;9.73;2.20;;;;;;;;;;4972721;28;20026;-79
2022/09/20 12:09:01;;;;;;;6.13;2.00;;;;;;;;;;4967634;28;20047;-79
2022/09/20 12:11:30;;;;;;;12.60;2.15;;;;;;;;;;4969223;28;20066;-79
2022/09/20 12:14:03;;;;;;;8.20;1.70;;;;;;;;;;4972158;28;20110;-78
2022/09/20 12:16:41;;;;;;;8.50;1.98;;;;;;;;;;4971818;28;20175;-80
2022/09/20 12:19:13;;;;;;;6.45;2.00;;;;;;;;;;4971741;28;20395;-79
2022/09/20 12:21:59;;;;;;;12.43;2.35;;;;;;;;;;4967095;28;20019;-80
2022/09/20 12:24:30;;;;;;;7.03;2.00;;;;;;;;;;4973496;28;20049;-81
2022/09/20 12:26:59;;;;;;;9.77;1.90;;;;;;;;;;4972442;28;20050;-81
2022/09/20 12:29:25;;;;;;;5.82;2.00;;;;;;;;;;4971786;28;20023;-80
2022/09/20 12:31:55;;;;;;;4.55;1.65;;;;;;;;;;4972458;28;20031;-80
2022/09/20 12:34:21;;;;;;;4.80;1.50;;;;;;;;;;4973372;28;20027;-81
2022/09/20 12:36:51;;;;;;;4.47;1.45;;;;;;;;;;4971882;28;20038;-81
2022/09/20 12:39:21;;;;;;;6.30;1.80;;;;;;;;;;4971330;28;20030;-81
2022/09/20 12:42:10;;;;;;;5.38;1.63;;;;;;;;;;4971901;28;20174;-79
2022/09/20 12:44:48;;;;;;;5.63;1.70;;;;;;;;;;4971866;28;20090;-81
2022/09/20 12:47:21;;;;;;;6.43;1.50;;;;;;;;;;4966937;28;20026;-81
2022/09/20 12:55:29;;;;;;;6.57;1.80;;;;;;;;;;4971641;28;20119;-81
2022/09/20 12:58:13;;;;;;;6.15;1.80;;;;;;;;;;4966184;28;20027;-80
2022/09/20 13:00:50;;;;;;;5.40;1.63;;;;;;;;;;4971331;28;20039;-80
2022/09/20 13:03:23;;;;;;;6.47;1.83;;;;;;;;;;4974244;28;20468;-81
2022/09/20 13:06:21;;;;;;;5.85;1.58;;;;;;;;;;4971121;28;20045;-80
2022/09/20 13:08:58;;;;;;;4.68;1.60;;;;;;;;;;4962303;28;20049;-81
2022/09/20 13:11:28;;;;;;;7.85;1.70;;;;;;;;;;4968197;28;20034;-81
2022/09/20 13:13:53;;;;;;;8.50;2.00;;;;;;;;;;4975883;28;20123;-80
2022/09/20 13:16:23;;;;;;;7.47;2.17;;;;;;;;;;4971079;28;20027;-79
2022/09/20 13:18:59;;;;;;;7.38;1.92;;;;;;;;;;4970588;28;20110;-78
2022/09/20 13:21:26;;;;;;;7.18;1.60;;;;;;;;;;4971390;28;20023;-79
2022/09/20 13:23:54;;;;;;;12.60;2.00;;;;;;;;;;4969913;28;20065;-80
2022/09/20 13:26:26;;;;;;;8.75;2.08;;;;;;;;;;4970642;28;20033;-79
2022/09/20 13:28:54;;;;;;;11.00;2.40;;;;;;;;;;4971602;28;20502;-79
2022/09/20 13:31:19;;;;;;;10.07;2.00;;;;;;;;;;4971074;28;20054;-79
2022/09/20 13:33:45;;;;;;;7.82;1.80;;;;;;;;;;4970480;28;20073;-79
2022/09/20 13:36:10;;;;;;;9.25;1.95;;;;;;;;;;4971187;28;20027;-79
2022/09/20 13:38:36;;;;;;;9.15;2.15;;;;;;;;;;4970620;28;20041;-80
2022/09/20 13:41:08;;;;;;;5.47;1.83;;;;;;;;;;4972207;28;20022;-79
2022/09/20 13:43:40;;;;;;;6.28;1.90;;;;;;;;;;4970473;28;20037;-78
2022/09/20 13:46:27;;;;;;;12.80;2.40;;;;;;;;;;4971141;28;20019;-79
2022/09/20 13:49:16;;;;;;;9.73;2.10;;;;;;;;;;4966414;28;20045;-79
2022/09/20 13:51:42;;;;;;;5.75;1.80;;;;;;;;;;4965891;28;20133;-79
2022/09/20 13:54:29;;;;;;;7.75;2.05;;;;;;;;;;4970727;28;20098;-79
2022/09/20 13:56:58;;;;;;;9.23;2.00;;;;;;;;;;4970287;28;20112;-79
2022/09/20 13:59:34;;;;;;;6.32;2.13;;;;;;;;;;4969929;28;20041;-79
2022/09/20 14:02:00;;;;;;;6.05;2.20;;;;;;;;;;4971543;28;20299;-79
2022/09/20 14:04:28;;;;;;;11.23;1.85;;;;;;;;;;4973383;28;20231;-79
2022/09/20 14:06:55;;;;;;;11.82;1.98;;;;;;;;;;4968379;28;20037;-79
2022/09/20 14:09:34;;;;;;;7.40;2.10;;;;;;;;;;4972508;28;20314;-78
2022/09/20 14:12:02;;;;;;;6.68;2.22;;;;;;;;;;4970299;28;20058;-79
2022/09/20 14:14:27;;;;;;;12.45;2.30;;;;;;;;;;4974098;28;20038;-78
2022/09/20 14:16:55;;;;;;;7.80;2.30;;;;;;;;;;4977491;28;20027;-79
2022/09/20 14:19:30;;;;;;;5.45;1.92;;;;;;;;;;4975060;28;20027;-79
2022/09/20 14:21:56;;;;;;;10.32;2.40;;;;;;;;;;4980167;28;20029;-79
2022/09/20 14:24:34;;;;;;;9.57;2.13;;;;;;;;;;4975799;28;20030;-79
2022/09/20 14:27:19;;;;;;;9.98;2.25;;;;;;;;;;4979824;28;20026;-78
2022/09/20 14:29:50;;;;;;;13.50;2.45;;;;;;;;;;4969641;28;20038;-79
2022/09/20 14:32:18;;;;;;;11.20;2.35;;;;;;;;;;4969749;28;20027;-79
2022/09/20 14:34:47;;;;;;;11.57;2.35;;;;;;;;;;4969547;28;20511;-78
2022/09/20 14:37:24;;;;;;;6.95;2.28;;;;;;;;;;4969442;28;20014;-78
2022/09/20 14:40:16;;;;;;;7.50;2.38;;;;;;;;;;4965085;28;20042;-78
2022/09/20 14:42:45;;;;;;;6.65;2.40;;;;;;;;;;4962583;28;20042;-79
2022/09/20 14:45:26;;;;;;;9.30;2.47;;;;;;;;;;4969643;28;20023;-79
2022/09/20 14:48:02;;;;;;;7.82;2.70;;;;;;;;;;4967642;28;20106;-80
2022/09/20 14:50:34;;;;;;;8.98;2.47;;;;;;;;;;4965135;28;20030;-79
2022/09/20 14:53:09;;;;;;;6.63;2.55;;;;;;;;;;4964464;28;20542;-80
2022/09/20 14:55:36;;;;;;;11.52;2.58;;;;;;;;;;4969977;28;20031;-79
2022/09/20 14:58:13;;;;;;;9.77;2.55;;;;;;;;;;4968151;28;20031;-78
2022/09/20 15:00:57;;;;;;;10.18;2.63;;;;;;;;;;4980214;28;20178;-79
2022/09/20 15:03:32;;;;;;;6.03;2.08;;;;;;;;;;4973129;28;20038;-79
2022/09/20 15:05:58;;;;;;;11.25;2.67;;;;;;;;;;4979538;28;20053;-79
2022/09/20 15:08:24;;;;;;;8.57;2.65;;;;;;;;;;4980139;28;20238;-78
2022/09/20 15:10:50;;;;;;;7.72;2.65;;;;;;;;;;4976087;28;20286;-78
2022/09/20 15:13:16;;;;;;;7.70;2.80;;;;;;;;;;4969794;28;20049;-79
2022/09/20 15:15:43;;;;;;;10.13;2.38;;;;;;;;;;4969471;28;20054;-79
2022/09/20 15:18:20;;;;;;;11.30;2.20;;;;;;;;;;4971188;28;20283;-78
2022/09/20 15:20:46;;;;;;;10.25;2.40;;;;;;;;;;4972682;28;20023;-79
2022/09/20 15:23:12;;;;;;;7.68;2.13;;;;;;;;;;4971227;28;20035;-78
2022/09/20 15:25:37;;;;;;;8.55;2.00;;;;;;;;;;4971364;28;20065;-78
2022/09/20 15:28:02;;;;;;;6.22;1.90;;;;;;;;;;4983133;28;20074;-78
2022/09/20 15:30:29;;;;;;;3.83;1.70;;;;;;;;;;4983803;28;20113;-79
2022/09/20 15:32:54;;;;;;;8.85;1.90;;;;;;;;;;4982475;28;20054;-79
2022/09/20 15:35:19;;;;;;;9.48;1.98;;;;;;;;;;4982615;28;20050;-78
2022/09/20 15:37:45;;;;;;;6.88;1.80;;;;;;;;;;4976896;28;20031;-78
2022/09/20 15:40:10;;;;;;;10.05;1.90;;;;;;;;;;4973204;28;20039;-79
2022/09/20 15:42:36;;;;;;;10.70;1.80;;;;;;;;;;4972232;28;20293;-79